sensor_id;sensor_type;location;lat;lon;timestamp;temperature;humidity
75376;HTU21D;63958;52.004;5.908;2022-10-31T00:01:37;15.51;75.03
75376;HTU21D;63958;52.004;5.908;2022-10-31T00:04:06;15.48;75.16
75376;HTU21D;63958;52.004;5.908;2022-10-31T00:06:35;15.48;75.12
75376;HTU21D;63958;52.004;5.908;2022-10-31T00:09:04;15.48;75.16
75376;HTU21D;63958;52.004;5.908;2022-10-31T00:11:36;15.46;75.15
75376;HTU21D;63958;52.004;5.908;2022-10-31T00:14:05;15.44;75.25
75376;HTU21D;63958;52.004;5.908;2022-10-31T00:16:34;15.44;75.19
75376;HTU21D;63958;52.004;5.908;2022-10-31T00:19:05;15.41;75.23
75376;HTU21D;63958;52.004;5.908;2022-10-31T00:21:34;15.38;75.38
75376;HTU21D;63958;52.004;5.908;2022-10-31T00:24:04;15.36;75.33
75376;HTU21D;63958;52.004;5.908;2022-10-31T00:26:36;15.36;75.32
75376;HTU21D;63958;52.004;5.908;2022-10-31T00:29:05;15.33;75.47
75376;HTU21D;63958;52.004;5.908;2022-10-31T00:31:34;15.33;75.47
75376;HTU21D;63958;52.004;5.908;2022-10-31T00:34:03;15.34;75.43
75376;HTU21D;63958;52.004;5.908;2022-10-31T00:36:32;15.33;75.49
75376;HTU21D;63958;52.004;5.908;2022-10-31T00:39:02;15.34;75.49
75376;HTU21D;63958;52.004;5.908;2022-10-31T00:41:31;15.33;75.55
75376;HTU21D;63958;52.004;5.908;2022-10-31T00:44:03;15.33;75.54
75376;HTU21D;63958;52.004;5.908;2022-10-31T00:46:32;15.32;75.66
75376;HTU21D;63958;52.004;5.908;2022-10-31T00:49:01;15.34;75.57
75376;HTU21D;63958;52.004;5.908;2022-10-31T00:51:30;15.32;75.60
75376;HTU21D;63958;52.004;5.908;2022-10-31T00:54:00;15.33;75.60
75376;HTU21D;63958;52.004;5.908;2022-10-31T00:56:29;15.32;75.54
75376;HTU21D;63958;52.004;5.908;2022-10-31T00:58:59;15.33;75.55
75376;HTU21D;63958;52.004;5.908;2022-10-31T01:01:32;15.33;75.47
75376;HTU21D;63958;52.004;5.908;2022-10-31T01:04:01;15.30;75.55
75376;HTU21D;63958;52.004;5.908;2022-10-31T01:06:31;15.30;75.57
75376;HTU21D;63958;52.004;5.908;2022-10-31T01:09:00;15.31;75.49
75376;HTU21D;63958;52.004;5.908;2022-10-31T01:11:29;15.28;75.54
75376;HTU21D;63958;52.004;5.908;2022-10-31T01:13:58;15.29;75.50
75376;HTU21D;63958;52.004;5.908;2022-10-31T01:16:30;15.27;75.49
75376;HTU21D;63958;52.004;5.908;2022-10-31T01:18:59;15.25;75.60
75376;HTU21D;63958;52.004;5.908;2022-10-31T01:21:28;15.24;75.55
75376;HTU21D;63958;52.004;5.908;2022-10-31T01:23:59;15.22;75.59
75376;HTU21D;63958;52.004;5.908;2022-10-31T01:26:29;15.22;75.55
75376;HTU21D;63958;52.004;5.908;2022-10-31T01:29:01;15.19;75.56
75376;HTU21D;63958;52.004;5.908;2022-10-31T01:31:34;15.18;75.49
75376;HTU21D;63958;52.004;5.908;2022-10-31T01:34:03;15.16;75.63
75376;HTU21D;63958;52.004;5.908;2022-10-31T01:36:34;15.13;75.67
75376;HTU21D;63958;52.004;5.908;2022-10-31T01:39:06;15.11;75.67
75376;HTU21D;63958;52.004;5.908;2022-10-31T01:41:38;15.06;75.79
75376;HTU21D;63958;52.004;5.908;2022-10-31T01:46:58;14.99;75.91
75376;HTU21D;63958;52.004;5.908;2022-10-31T01:49:31;14.96;75.95
75376;HTU21D;63958;52.004;5.908;2022-10-31T01:52:05;14.97;75.86
75376;HTU21D;63958;52.004;5.908;2022-10-31T01:54:39;14.97;75.79
75376;HTU21D;63958;52.004;5.908;2022-10-31T01:57:10;14.97;75.73
75376;HTU21D;63958;52.004;5.908;2022-10-31T01:59:42;14.84;75.94
75376;HTU21D;63958;52.004;5.908;2022-10-31T02:02:15;14.84;75.80
75376;HTU21D;63958;52.004;5.908;2022-10-31T02:04:46;14.80;75.77
75376;HTU21D;63958;52.004;5.908;2022-10-31T02:07:21;14.73;75.75
75376;HTU21D;63958;52.004;5.908;2022-10-31T02:09:53;14.72;75.73
75376;HTU21D;63958;52.004;5.908;2022-10-31T02:12:23;14.68;75.77
75376;HTU21D;63958;52.004;5.908;2022-10-31T02:14:58;14.65;75.80
75376;HTU21D;63958;52.004;5.908;2022-10-31T02:17:31;14.62;75.73
75376;HTU21D;63958;52.004;5.908;2022-10-31T02:20:12;14.57;75.73
75376;HTU21D;63958;52.004;5.908;2022-10-31T02:23:13;14.52;75.72
75376;HTU21D;63958;52.004;5.908;2022-10-31T02:26:07;14.45;75.79
75376;HTU21D;63958;52.004;5.908;2022-10-31T02:29:05;14.39;75.83
75376;HTU21D;63958;52.004;5.908;2022-10-31T02:31:42;14.34;75.86
75376;HTU21D;63958;52.004;5.908;2022-10-31T02:34:18;14.32;75.86
75376;HTU21D;63958;52.004;5.908;2022-10-31T02:36:53;14.27;75.85
75376;HTU21D;63958;52.004;5.908;2022-10-31T02:39:29;14.25;75.85
75376;HTU21D;63958;52.004;5.908;2022-10-31T02:42:07;14.19;75.91
75376;HTU21D;63958;52.004;5.908;2022-10-31T02:44:42;14.14;75.90
75376;HTU21D;63958;52.004;5.908;2022-10-31T02:47:17;14.08;75.97
75376;HTU21D;63958;52.004;5.908;2022-10-31T02:49:53;14.05;75.92
75376;HTU21D;63958;52.004;5.908;2022-10-31T02:52:25;14.01;75.95
75376;HTU21D;63958;52.004;5.908;2022-10-31T02:55:10;13.96;75.95
75376;HTU21D;63958;52.004;5.908;2022-10-31T02:57:41;13.94;76.04
75376;HTU21D;63958;52.004;5.908;2022-10-31T03:00:12;13.92;76.14
75376;HTU21D;63958;52.004;5.908;2022-10-31T03:02:53;13.91;76.07
75376;HTU21D;63958;52.004;5.908;2022-10-31T03:05:37;13.93;76.04
75376;HTU21D;63958;52.004;5.908;2022-10-31T03:08:15;13.92;76.06
75376;HTU21D;63958;52.004;5.908;2022-10-31T03:10:53;13.90;76.15
75376;HTU21D;63958;52.004;5.908;2022-10-31T03:13:32;13.89;76.14
75376;HTU21D;63958;52.004;5.908;2022-10-31T03:16:08;13.88;76.08
75376;HTU21D;63958;52.004;5.908;2022-10-31T03:18:43;13.85;76.03
75376;HTU21D;63958;52.004;5.908;2022-10-31T03:21:14;13.83;76.07
75376;HTU21D;63958;52.004;5.908;2022-10-31T03:23:45;13.82;76.15
75376;HTU21D;63958;52.004;5.908;2022-10-31T03:26:20;13.79;76.06
75376;HTU21D;63958;52.004;5.908;2022-10-31T03:28:53;13.73;76.02
75376;HTU21D;63958;52.004;5.908;2022-10-31T03:31:27;13.67;76.03
75376;HTU21D;63958;52.004;5.908;2022-10-31T03:34:02;13.63;76.04
75376;HTU21D;63958;52.004;5.908;2022-10-31T03:36:33;13.58;76.00
75376;HTU21D;63958;52.004;5.908;2022-10-31T03:39:06;13.51;76.04
75376;HTU21D;63958;52.004;5.908;2022-10-31T03:41:40;13.44;76.12
75376;HTU21D;63958;52.004;5.908;2022-10-31T03:44:15;13.41;76.15
75376;HTU21D;63958;52.004;5.908;2022-10-31T03:46:51;13.41;76.12
75376;HTU21D;63958;52.004;5.908;2022-10-31T03:49:23;13.38;76.09
75376;HTU21D;63958;52.004;5.908;2022-10-31T03:51:57;13.33;76.22
75376;HTU21D;63958;52.004;5.908;2022-10-31T03:54:33;13.34;76.18
75376;HTU21D;63958;52.004;5.908;2022-10-31T03:57:07;13.33;76.30
75376;HTU21D;63958;52.004;5.908;2022-10-31T03:59:40;13.29;76.25
75376;HTU21D;63958;52.004;5.908;2022-10-31T04:02:13;13.27;76.24
75376;HTU21D;63958;52.004;5.908;2022-10-31T04:04:47;13.25;76.22
75376;HTU21D;63958;52.004;5.908;2022-10-31T04:07:18;13.23;76.17
75376;HTU21D;63958;52.004;5.908;2022-10-31T04:09:51;13.21;76.15
75376;HTU21D;63958;52.004;5.908;2022-10-31T04:12:23;13.17;76.23
75376;HTU21D;63958;52.004;5.908;2022-10-31T04:15:03;13.12;76.21
75376;HTU21D;63958;52.004;5.908;2022-10-31T04:17:39;13.08;76.18
75376;HTU21D;63958;52.004;5.908;2022-10-31T04:20:15;13.05;76.18
75376;HTU21D;63958;52.004;5.908;2022-10-31T04:22:44;13.05;76.23
75376;HTU21D;63958;52.004;5.908;2022-10-31T04:25:13;13.05;76.31
75376;HTU21D;63958;52.004;5.908;2022-10-31T04:27:42;13.04;76.31
75376;HTU21D;63958;52.004;5.908;2022-10-31T04:30:12;13.05;76.30
75376;HTU21D;63958;52.004;5.908;2022-10-31T04:32:41;13.05;76.28
75376;HTU21D;63958;52.004;5.908;2022-10-31T04:35:12;13.02;76.23
75376;HTU21D;63958;52.004;5.908;2022-10-31T04:37:42;12.99;76.26
75376;HTU21D;63958;52.004;5.908;2022-10-31T04:40:11;12.95;76.26
75376;HTU21D;63958;52.004;5.908;2022-10-31T04:42:55;12.91;76.33
75376;HTU21D;63958;52.004;5.908;2022-10-31T04:45:24;12.89;76.39
75376;HTU21D;63958;52.004;5.908;2022-10-31T04:47:54;12.90;76.36
75376;HTU21D;63958;52.004;5.908;2022-10-31T04:50:25;12.87;76.39
75376;HTU21D;63958;52.004;5.908;2022-10-31T04:52:54;12.88;76.50
75376;HTU21D;63958;52.004;5.908;2022-10-31T04:55:27;12.88;76.55
75376;HTU21D;63958;52.004;5.908;2022-10-31T04:58:13;12.88;76.55
75376;HTU21D;63958;52.004;5.908;2022-10-31T05:00:43;12.88;76.53
75376;HTU21D;63958;52.004;5.908;2022-10-31T05:03:13;12.87;76.52
75376;HTU21D;63958;52.004;5.908;2022-10-31T05:05:45;12.87;76.47
75376;HTU21D;63958;52.004;5.908;2022-10-31T05:08:14;12.87;76.47
75376;HTU21D;63958;52.004;5.908;2022-10-31T05:10:43;12.86;76.49
75376;HTU21D;63958;52.004;5.908;2022-10-31T05:13:12;12.86;76.46
75376;HTU21D;63958;52.004;5.908;2022-10-31T05:16:17;12.80;76.54
75376;HTU21D;63958;52.004;5.908;2022-10-31T05:18:49;12.78;76.63
75376;HTU21D;63958;52.004;5.908;2022-10-31T05:21:39;12.79;76.62
75376;HTU21D;63958;52.004;5.908;2022-10-31T05:24:08;12.81;76.68
75376;HTU21D;63958;52.004;5.908;2022-10-31T05:26:39;12.82;76.76
75376;HTU21D;63958;52.004;5.908;2022-10-31T05:29:09;12.87;76.76
75376;HTU21D;63958;52.004;5.908;2022-10-31T05:31:38;12.93;76.70
75376;HTU21D;63958;52.004;5.908;2022-10-31T05:34:14;12.97;76.63
75376;HTU21D;63958;52.004;5.908;2022-10-31T05:37:14;12.97;76.63
75376;HTU21D;63958;52.004;5.908;2022-10-31T05:39:47;12.97;76.67
75376;HTU21D;63958;52.004;5.908;2022-10-31T05:42:16;12.97;76.68
75376;HTU21D;63958;52.004;5.908;2022-10-31T05:44:45;12.97;76.76
75376;HTU21D;63958;52.004;5.908;2022-10-31T05:47:32;12.99;76.81
75376;HTU21D;63958;52.004;5.908;2022-10-31T05:50:39;12.95;76.91
75376;HTU21D;63958;52.004;5.908;2022-10-31T05:53:13;12.96;76.96
75376;HTU21D;63958;52.004;5.908;2022-10-31T05:55:42;12.97;77.01
75376;HTU21D;63958;52.004;5.908;2022-10-31T05:58:14;12.97;77.10
75376;HTU21D;63958;52.004;5.908;2022-10-31T06:00:50;13.04;77.08
75376;HTU21D;63958;52.004;5.908;2022-10-31T06:03:19;13.07;77.12
75376;HTU21D;63958;52.004;5.908;2022-10-31T06:05:52;13.10;77.11
75376;HTU21D;63958;52.004;5.908;2022-10-31T06:08:25;13.10;77.13
75376;HTU21D;63958;52.004;5.908;2022-10-31T06:10:55;13.15;77.21
75376;HTU21D;63958;52.004;5.908;2022-10-31T06:13:47;13.16;77.21
75376;HTU21D;63958;52.004;5.908;2022-10-31T06:16:21;13.19;77.20
75376;HTU21D;63958;52.004;5.908;2022-10-31T06:18:51;13.21;77.22
75376;HTU21D;63958;52.004;5.908;2022-10-31T06:21:20;13.22;77.29
75376;HTU21D;63958;52.004;5.908;2022-10-31T06:23:53;13.23;77.24
75376;HTU21D;63958;52.004;5.908;2022-10-31T06:26:51;13.24;77.23
75376;HTU21D;63958;52.004;5.908;2022-10-31T06:29:21;13.26;77.26
75376;HTU21D;63958;52.004;5.908;2022-10-31T06:32:10;13.26;77.18
75376;HTU21D;63958;52.004;5.908;2022-10-31T06:34:42;13.24;77.24
75376;HTU21D;63958;52.004;5.908;2022-10-31T06:37:14;13.25;77.23
75376;HTU21D;63958;52.004;5.908;2022-10-31T06:39:49;13.24;77.22
75376;HTU21D;63958;52.004;5.908;2022-10-31T06:42:18;13.26;77.24
75376;HTU21D;63958;52.004;5.908;2022-10-31T06:44:47;13.26;77.24
75376;HTU21D;63958;52.004;5.908;2022-10-31T06:47:35;13.25;77.24
75376;HTU21D;63958;52.004;5.908;2022-10-31T06:50:10;13.23;77.22
75376;HTU21D;63958;52.004;5.908;2022-10-31T06:52:39;13.22;77.24
75376;HTU21D;63958;52.004;5.908;2022-10-31T06:55:11;13.23;77.17
75376;HTU21D;63958;52.004;5.908;2022-10-31T06:57:40;13.22;77.31
75376;HTU21D;63958;52.004;5.908;2022-10-31T07:00:10;13.22;77.29
75376;HTU21D;63958;52.004;5.908;2022-10-31T07:02:44;13.21;77.37
75376;HTU21D;63958;52.004;5.908;2022-10-31T07:05:22;13.23;77.38
75376;HTU21D;63958;52.004;5.908;2022-10-31T07:07:52;13.22;77.39
75376;HTU21D;63958;52.004;5.908;2022-10-31T07:10:26;13.25;77.31
75376;HTU21D;63958;52.004;5.908;2022-10-31T07:13:03;13.24;77.37
75376;HTU21D;63958;52.004;5.908;2022-10-31T07:15:35;13.23;77.47
75376;HTU21D;63958;52.004;5.908;2022-10-31T07:18:06;13.24;77.41
75376;HTU21D;63958;52.004;5.908;2022-10-31T07:20:36;13.26;77.37
75376;HTU21D;63958;52.004;5.908;2022-10-31T07:23:05;13.26;77.37
75376;HTU21D;63958;52.004;5.908;2022-10-31T07:25:37;13.25;77.37
75376;HTU21D;63958;52.004;5.908;2022-10-31T07:28:10;13.27;77.42
75376;HTU21D;63958;52.004;5.908;2022-10-31T07:30:39;13.31;77.46
75376;HTU21D;63958;52.004;5.908;2022-10-31T07:33:09;13.33;77.57
75376;HTU21D;63958;52.004;5.908;2022-10-31T07:35:59;13.38;77.60
75376;HTU21D;63958;52.004;5.908;2022-10-31T07:38:30;13.44;77.81
75376;HTU21D;63958;52.004;5.908;2022-10-31T07:41:05;13.51;78.02
75376;HTU21D;63958;52.004;5.908;2022-10-31T07:43:39;13.61;78.02
75376;HTU21D;63958;52.004;5.908;2022-10-31T07:46:17;13.66;77.99
75376;HTU21D;63958;52.004;5.908;2022-10-31T07:49:04;13.74;78.13
75376;HTU21D;63958;52.004;5.908;2022-10-31T07:51:56;13.80;78.24
75376;HTU21D;63958;52.004;5.908;2022-10-31T07:54:44;13.88;78.37
75376;HTU21D;63958;52.004;5.908;2022-10-31T07:57:17;13.91;78.31
75376;HTU21D;63958;52.004;5.908;2022-10-31T07:59:46;13.98;78.50
75376;HTU21D;63958;52.004;5.908;2022-10-31T08:02:17;14.07;78.42
75376;HTU21D;63958;52.004;5.908;2022-10-31T08:04:46;14.15;78.36
75376;HTU21D;63958;52.004;5.908;2022-10-31T08:07:36;14.20;78.32
75376;HTU21D;63958;52.004;5.908;2022-10-31T08:10:11;14.28;78.30
75376;HTU21D;63958;52.004;5.908;2022-10-31T08:12:42;14.35;78.18
75376;HTU21D;63958;52.004;5.908;2022-10-31T08:15:12;14.41;78.16
75376;HTU21D;63958;52.004;5.908;2022-10-31T08:17:41;14.48;78.18
75376;HTU21D;63958;52.004;5.908;2022-10-31T08:20:10;14.54;78.15
75376;HTU21D;63958;52.004;5.908;2022-10-31T08:22:56;14.58;78.01
75376;HTU21D;63958;52.004;5.908;2022-10-31T08:25:28;14.60;78.09
75376;HTU21D;63958;52.004;5.908;2022-10-31T08:28:01;14.64;78.13
75376;HTU21D;63958;52.004;5.908;2022-10-31T08:30:32;14.63;78.29
75376;HTU21D;63958;52.004;5.908;2022-10-31T08:33:36;14.59;78.43
75376;HTU21D;63958;52.004;5.908;2022-10-31T08:36:24;14.57;78.34
75376;HTU21D;63958;52.004;5.908;2022-10-31T08:39:09;14.57;78.41
75376;HTU21D;63958;52.004;5.908;2022-10-31T08:41:38;14.60;78.31
75376;HTU21D;63958;52.004;5.908;2022-10-31T08:44:13;14.63;78.21
75376;HTU21D;63958;52.004;5.908;2022-10-31T08:46:43;14.64;78.37
75376;HTU21D;63958;52.004;5.908;2022-10-31T08:49:12;14.67;78.24
75376;HTU21D;63958;52.004;5.908;2022-10-31T08:51:42;14.71;78.15
75376;HTU21D;63958;52.004;5.908;2022-10-31T08:54:11;14.79;78.01
75376;HTU21D;63958;52.004;5.908;2022-10-31T08:56:56;14.80;78.06
75376;HTU21D;63958;52.004;5.908;2022-10-31T08:59:56;14.84;78.06
75376;HTU21D;63958;52.004;5.908;2022-10-31T09:02:55;14.92;78.01
75376;HTU21D;63958;52.004;5.908;2022-10-31T09:05:26;14.97;77.93
75376;HTU21D;63958;52.004;5.908;2022-10-31T09:07:57;15.03;77.92
75376;HTU21D;63958;52.004;5.908;2022-10-31T09:10:27;15.10;77.77
75376;HTU21D;63958;52.004;5.908;2022-10-31T09:12:57;15.11;77.72
75376;HTU21D;63958;52.004;5.908;2022-10-31T09:15:48;15.13;77.62
75376;HTU21D;63958;52.004;5.908;2022-10-31T09:18:24;15.19;77.53
75376;HTU21D;63958;52.004;5.908;2022-10-31T09:21:00;15.26;77.40
75376;HTU21D;63958;52.004;5.908;2022-10-31T09:23:30;15.30;77.41
75376;HTU21D;63958;52.004;5.908;2022-10-31T09:26:01;15.37;77.33
75376;HTU21D;63958;52.004;5.908;2022-10-31T09:28:38;15.40;77.29
75376;HTU21D;63958;52.004;5.908;2022-10-31T09:31:12;15.43;77.19
75376;HTU21D;63958;52.004;5.908;2022-10-31T09:33:55;15.45;77.26
75376;HTU21D;63958;52.004;5.908;2022-10-31T09:36:47;15.47;77.23
75376;HTU21D;63958;52.004;5.908;2022-10-31T09:39:20;15.49;77.18
75376;HTU21D;63958;52.004;5.908;2022-10-31T09:42:09;15.51;77.13
75376;HTU21D;63958;52.004;5.908;2022-10-31T09:44:53;15.52;77.12
75376;HTU21D;63958;52.004;5.908;2022-10-31T09:47:55;15.56;77.15
75376;HTU21D;63958;52.004;5.908;2022-10-31T09:50:38;15.60;77.08
75376;HTU21D;63958;52.004;5.908;2022-10-31T09:53:36;15.61;77.13
75376;HTU21D;63958;52.004;5.908;2022-10-31T09:56:10;15.66;77.08
75376;HTU21D;63958;52.004;5.908;2022-10-31T09:58:43;15.70;77.18
75376;HTU21D;63958;52.004;5.908;2022-10-31T10:01:22;15.73;77.15
75376;HTU21D;63958;52.004;5.908;2022-10-31T10:03:57;15.75;77.09
75376;HTU21D;63958;52.004;5.908;2022-10-31T10:06:51;15.76;77.18
75376;HTU21D;63958;52.004;5.908;2022-10-31T10:09:41;15.81;77.11
75376;HTU21D;63958;52.004;5.908;2022-10-31T10:12:57;15.81;77.15
75376;HTU21D;63958;52.004;5.908;2022-10-31T10:15:41;15.83;77.22
75376;HTU21D;63958;52.004;5.908;2022-10-31T10:18:23;15.84;77.25
75376;HTU21D;63958;52.004;5.908;2022-10-31T10:21:05;15.88;77.27
75376;HTU21D;63958;52.004;5.908;2022-10-31T10:23:46;15.92;77.36
75376;HTU21D;63958;52.004;5.908;2022-10-31T10:26:20;15.98;77.36
75376;HTU21D;63958;52.004;5.908;2022-10-31T10:28:54;16.01;77.31
75376;HTU21D;63958;52.004;5.908;2022-10-31T10:31:28;16.04;77.37
75376;HTU21D;63958;52.004;5.908;2022-10-31T10:34:05;16.10;77.23
75376;HTU21D;63958;52.004;5.908;2022-10-31T10:36:42;16.11;77.29
75376;HTU21D;63958;52.004;5.908;2022-10-31T10:39:15;16.15;77.25
75376;HTU21D;63958;52.004;5.908;2022-10-31T10:41:48;16.19;77.23
75376;HTU21D;63958;52.004;5.908;2022-10-31T10:44:30;16.22;77.29
75376;HTU21D;63958;52.004;5.908;2022-10-31T10:47:11;16.20;77.40
75376;HTU21D;63958;52.004;5.908;2022-10-31T10:49:53;16.21;77.31
75376;HTU21D;63958;52.004;5.908;2022-10-31T10:52:29;16.24;77.24
75376;HTU21D;63958;52.004;5.908;2022-10-31T10:55:08;16.25;77.24
75376;HTU21D;63958;52.004;5.908;2022-10-31T10:57:50;16.26;77.20
75376;HTU21D;63958;52.004;5.908;2022-10-31T11:00:23;16.30;77.24
75376;HTU21D;63958;52.004;5.908;2022-10-31T11:02:53;16.34;77.25
75376;HTU21D;63958;52.004;5.908;2022-10-31T11:05:26;16.42;77.15
75376;HTU21D;63958;52.004;5.908;2022-10-31T11:07:59;16.49;77.03
75376;HTU21D;63958;52.004;5.908;2022-10-31T11:10:28;16.55;77.02
75376;HTU21D;63958;52.004;5.908;2022-10-31T11:13:03;16.61;76.81
75376;HTU21D;63958;52.004;5.908;2022-10-31T11:15:36;16.66;76.68
75376;HTU21D;63958;52.004;5.908;2022-10-31T11:18:05;16.72;76.40
75376;HTU21D;63958;52.004;5.908;2022-10-31T11:20:50;16.77;76.26
75376;HTU21D;63958;52.004;5.908;2022-10-31T11:23:24;16.79;76.09
75376;HTU21D;63958;52.004;5.908;2022-10-31T11:25:56;16.81;76.12
75376;HTU21D;63958;52.004;5.908;2022-10-31T11:28:26;16.87;75.89
75376;HTU21D;63958;52.004;5.908;2022-10-31T11:30:57;16.92;75.81
75376;HTU21D;63958;52.004;5.908;2022-10-31T11:33:30;16.91;75.84
75376;HTU21D;63958;52.004;5.908;2022-10-31T11:36:01;16.95;75.82
75376;HTU21D;63958;52.004;5.908;2022-10-31T11:38:40;16.93;75.82
75376;HTU21D;63958;52.004;5.908;2022-10-31T11:41:11;16.96;75.69
75376;HTU21D;63958;52.004;5.908;2022-10-31T11:43:46;16.98;75.41
75376;HTU21D;63958;52.004;5.908;2022-10-31T11:46:20;16.94;75.54
75376;HTU21D;63958;52.004;5.908;2022-10-31T11:48:51;16.94;75.53
75376;HTU21D;63958;52.004;5.908;2022-10-31T11:51:22;16.95;75.45
75376;HTU21D;63958;52.004;5.908;2022-10-31T11:53:57;16.96;75.42
75376;HTU21D;63958;52.004;5.908;2022-10-31T11:56:37;16.96;75.50
75376;HTU21D;63958;52.004;5.908;2022-10-31T11:59:17;16.95;75.42
75376;HTU21D;63958;52.004;5.908;2022-10-31T12:01:48;16.99;75.44
75376;HTU21D;63958;52.004;5.908;2022-10-31T12:04:18;17.01;75.47
75376;HTU21D;63958;52.004;5.908;2022-10-31T12:06:47;17.03;75.42
75376;HTU21D;63958;52.004;5.908;2022-10-31T12:09:22;17.03;75.44
75376;HTU21D;63958;52.004;5.908;2022-10-31T12:12:04;17.02;75.56
75376;HTU21D;63958;52.004;5.908;2022-10-31T12:14:44;17.04;75.46
75376;HTU21D;63958;52.004;5.908;2022-10-31T12:17:18;17.08;75.58
75376;HTU21D;63958;52.004;5.908;2022-10-31T12:19:59;17.09;75.61
75376;HTU21D;63958;52.004;5.908;2022-10-31T12:22:36;17.16;75.62
75376;HTU21D;63958;52.004;5.908;2022-10-31T12:25:28;17.21;75.70
75376;HTU21D;63958;52.004;5.908;2022-10-31T12:28:34;17.22;75.50
75376;HTU21D;63958;52.004;5.908;2022-10-31T12:31:18;17.26;75.31
75376;HTU21D;63958;52.004;5.908;2022-10-31T12:33:57;17.29;75.15
75376;HTU21D;63958;52.004;5.908;2022-10-31T12:36:45;17.32;75.10
75376;HTU21D;63958;52.004;5.908;2022-10-31T12:39:24;17.32;75.15
75376;HTU21D;63958;52.004;5.908;2022-10-31T12:42:02;17.33;75.16
75376;HTU21D;63958;52.004;5.908;2022-10-31T12:44:48;17.34;75.21
75376;HTU21D;63958;52.004;5.908;2022-10-31T12:47:42;17.35;75.28
75376;HTU21D;63958;52.004;5.908;2022-10-31T12:50:21;17.37;75.19
75376;HTU21D;63958;52.004;5.908;2022-10-31T12:52:59;17.41;75.18
75376;HTU21D;63958;52.004;5.908;2022-10-31T12:55:38;17.46;75.22
75376;HTU21D;63958;52.004;5.908;2022-10-31T12:58:17;17.47;75.12
75376;HTU21D;63958;52.004;5.908;2022-10-31T13:00:50;17.48;75.12
75376;HTU21D;63958;52.004;5.908;2022-10-31T13:03:30;17.49;75.16
75376;HTU21D;63958;52.004;5.908;2022-10-31T13:06:05;17.54;75.13
75376;HTU21D;63958;52.004;5.908;2022-10-31T13:08:39;17.59;75.10
75376;HTU21D;63958;52.004;5.908;2022-10-31T13:11:13;17.62;75.05
75376;HTU21D;63958;52.004;5.908;2022-10-31T13:13:52;17.67;75.09
75376;HTU21D;63958;52.004;5.908;2022-10-31T13:16:25;17.76;74.81
75376;HTU21D;63958;52.004;5.908;2022-10-31T13:19:00;17.80;74.85
75376;HTU21D;63958;52.004;5.908;2022-10-31T13:21:34;17.85;74.67
75376;HTU21D;63958;52.004;5.908;2022-10-31T13:24:11;17.88;74.58
75376;HTU21D;63958;52.004;5.908;2022-10-31T13:26:44;17.91;74.39
75376;HTU21D;63958;52.004;5.908;2022-10-31T13:29:23;17.91;74.44
75376;HTU21D;63958;52.004;5.908;2022-10-31T13:31:54;17.93;74.14
75376;HTU21D;63958;52.004;5.908;2022-10-31T13:34:28;17.94;73.86
75376;HTU21D;63958;52.004;5.908;2022-10-31T13:37:04;17.95;74.07
75376;HTU21D;63958;52.004;5.908;2022-10-31T13:39:45;17.93;74.01
75376;HTU21D;63958;52.004;5.908;2022-10-31T13:42:19;17.94;74.02
75376;HTU21D;63958;52.004;5.908;2022-10-31T13:44:51;17.96;73.93
75376;HTU21D;63958;52.004;5.908;2022-10-31T13:47:24;17.95;73.84
75376;HTU21D;63958;52.004;5.908;2022-10-31T13:50:04;17.94;73.57
75376;HTU21D;63958;52.004;5.908;2022-10-31T13:52:33;17.97;73.35
75376;HTU21D;63958;52.004;5.908;2022-10-31T13:55:03;17.96;73.42
75376;HTU21D;63958;52.004;5.908;2022-10-31T13:57:37;17.98;73.25
75376;HTU21D;63958;52.004;5.908;2022-10-31T14:00:24;17.96;73.44
75376;HTU21D;63958;52.004;5.908;2022-10-31T14:02:56;17.97;73.36
75376;HTU21D;63958;52.004;5.908;2022-10-31T14:05:27;17.97;73.35
75376;HTU21D;63958;52.004;5.908;2022-10-31T14:08:00;17.97;73.17
75376;HTU21D;63958;52.004;5.908;2022-10-31T14:10:32;17.96;73.19
75376;HTU21D;63958;52.004;5.908;2022-10-31T14:13:06;17.97;73.29
75376;HTU21D;63958;52.004;5.908;2022-10-31T14:15:40;17.98;73.35
75376;HTU21D;63958;52.004;5.908;2022-10-31T14:18:22;17.96;73.27
75376;HTU21D;63958;52.004;5.908;2022-10-31T14:20:51;17.97;73.06
75376;HTU21D;63958;52.004;5.908;2022-10-31T14:23:41;17.94;73.17
75376;HTU21D;63958;52.004;5.908;2022-10-31T14:26:32;17.94;73.19
75376;HTU21D;63958;52.004;5.908;2022-10-31T14:29:21;17.92;73.25
75376;HTU21D;63958;52.004;5.908;2022-10-31T14:32:06;17.90;73.06
75376;HTU21D;63958;52.004;5.908;2022-10-31T14:34:41;17.90;73.04
75376;HTU21D;63958;52.004;5.908;2022-10-31T14:37:30;17.85;73.11
75376;HTU21D;63958;52.004;5.908;2022-10-31T14:40:18;17.91;73.13
75376;HTU21D;63958;52.004;5.908;2022-10-31T14:43:00;17.88;73.23
75376;HTU21D;63958;52.004;5.908;2022-10-31T14:45:39;17.89;73.23
75376;HTU21D;63958;52.004;5.908;2022-10-31T14:48:33;17.88;73.39
75376;HTU21D;63958;52.004;5.908;2022-10-31T14:51:11;17.89;73.21
75376;HTU21D;63958;52.004;5.908;2022-10-31T14:53:45;17.88;73.16
75376;HTU21D;63958;52.004;5.908;2022-10-31T14:56:20;17.83;73.02
75376;HTU21D;63958;52.004;5.908;2022-10-31T14:58:49;17.85;73.22
75376;HTU21D;63958;52.004;5.908;2022-10-31T15:01:22;17.84;73.21
75376;HTU21D;63958;52.004;5.908;2022-10-31T15:04:00;17.83;73.21
75376;HTU21D;63958;52.004;5.908;2022-10-31T15:06:39;17.80;73.32
75376;HTU21D;63958;52.004;5.908;2022-10-31T15:09:21;17.78;73.44
75376;HTU21D;63958;52.004;5.908;2022-10-31T15:11:51;17.75;73.41
75376;HTU21D;63958;52.004;5.908;2022-10-31T15:14:25;17.73;73.34
75376;HTU21D;63958;52.004;5.908;2022-10-31T15:16:56;17.73;73.38
75376;HTU21D;63958;52.004;5.908;2022-10-31T15:19:29;17.68;73.57
75376;HTU21D;63958;52.004;5.908;2022-10-31T15:22:00;17.68;73.57
75376;HTU21D;63958;52.004;5.908;2022-10-31T15:24:32;17.67;73.52
75376;HTU21D;63958;52.004;5.908;2022-10-31T15:27:02;17.63;73.67
75376;HTU21D;63958;52.004;5.908;2022-10-31T15:29:31;17.62;73.64
75376;HTU21D;63958;52.004;5.908;2022-10-31T15:32:17;17.56;73.78
75376;HTU21D;63958;52.004;5.908;2022-10-31T15:34:50;17.55;73.80
75376;HTU21D;63958;52.004;5.908;2022-10-31T15:37:21;17.55;73.88
75376;HTU21D;63958;52.004;5.908;2022-10-31T15:39:51;17.55;73.89
75376;HTU21D;63958;52.004;5.908;2022-10-31T15:42:22;17.53;73.93
75376;HTU21D;63958;52.004;5.908;2022-10-31T15:44:56;17.52;74.05
75376;HTU21D;63958;52.004;5.908;2022-10-31T15:47:29;17.53;73.99
75376;HTU21D;63958;52.004;5.908;2022-10-31T15:50:03;17.51;74.08
75376;HTU21D;63958;52.004;5.908;2022-10-31T15:52:40;17.50;74.09
75376;HTU21D;63958;52.004;5.908;2022-10-31T15:55:16;17.49;74.11
75376;HTU21D;63958;52.004;5.908;2022-10-31T15:57:49;17.50;74.11
75376;HTU21D;63958;52.004;5.908;2022-10-31T16:00:24;17.47;74.15
75376;HTU21D;63958;52.004;5.908;2022-10-31T16:03:06;17.46;74.16
75376;HTU21D;63958;52.004;5.908;2022-10-31T16:05:43;17.47;74.08
75376;HTU21D;63958;52.004;5.908;2022-10-31T16:08:31;17.44;74.15
75376;HTU21D;63958;52.004;5.908;2022-10-31T16:11:14;17.45;74.18